sensor_id;sensor_type;location;lat;lon;timestamp;P1;durP1;ratioP1;P2;durP2;ratioP2
13048;SDS011;6591;51.446;5.404;2023-05-15T00:02:24;16.63;;;14.33;;
13048;SDS011;6591;51.446;5.404;2023-05-15T00:04:52;18.03;;;14.60;;
13048;SDS011;6591;51.446;5.404;2023-05-15T00:07:19;15.97;;;14.27;;
13048;SDS011;6591;51.446;5.404;2023-05-15T00:09:46;17.17;;;14.33;;
13048;SDS011;6591;51.446;5.404;2023-05-15T00:12:13;18.53;;;14.90;;
13048;SDS011;6591;51.446;5.404;2023-05-15T00:14:40;17.13;;;13.90;;
13048;SDS011;6591;51.446;5.404;2023-05-15T00:17:07;16.20;;;14.07;;
13048;SDS011;6591;51.446;5.404;2023-05-15T00:19:35;22.60;;;15.83;;
13048;SDS011;6591;51.446;5.404;2023-05-15T00:22:02;17.90;;;15.57;;
13048;SDS011;6591;51.446;5.404;2023-05-15T00:24:29;16.77;;;14.33;;
13048;SDS011;6591;51.446;5.404;2023-05-15T00:26:56;19.37;;;16.57;;
13048;SDS011;6591;51.446;5.404;2023-05-15T00:29:25;19.53;;;15.20;;
13048;SDS011;6591;51.446;5.404;2023-05-15T00:31:52;18.43;;;16.03;;
13048;SDS011;6591;51.446;5.404;2023-05-15T00:34:20;18.30;;;15.50;;
13048;SDS011;6591;51.446;5.404;2023-05-15T00:36:47;19.07;;;15.50;;
13048;SDS011;6591;51.446;5.404;2023-05-15T00:39:14;16.37;;;14.67;;
13048;SDS011;6591;51.446;5.404;2023-05-15T00:41:41;19.20;;;15.43;;
13048;SDS011;6591;51.446;5.404;2023-05-15T00:44:11;22.00;;;15.50;;
13048;SDS011;6591;51.446;5.404;2023-05-15T00:46:39;18.70;;;14.77;;
13048;SDS011;6591;51.446;5.404;2023-05-15T00:49:07;16.67;;;14.87;;
13048;SDS011;6591;51.446;5.404;2023-05-15T00:51:41;19.77;;;16.30;;
13048;SDS011;6591;51.446;5.404;2023-05-15T00:54:09;18.07;;;15.40;;
13048;SDS011;6591;51.446;5.404;2023-05-15T00:56:36;19.70;;;16.20;;
13048;SDS011;6591;51.446;5.404;2023-05-15T00:59:05;18.93;;;16.00;;
13048;SDS011;6591;51.446;5.404;2023-05-15T01:01:33;20.73;;;17.33;;
13048;SDS011;6591;51.446;5.404;2023-05-15T01:04:02;20.33;;;16.37;;
13048;SDS011;6591;51.446;5.404;2023-05-15T01:06:30;23.17;;;17.77;;
13048;SDS011;6591;51.446;5.404;2023-05-15T01:08:59;22.03;;;17.73;;
13048;SDS011;6591;51.446;5.404;2023-05-15T01:11:33;23.07;;;17.17;;
13048;SDS011;6591;51.446;5.404;2023-05-15T01:14:05;20.40;;;18.20;;
13048;SDS011;6591;51.446;5.404;2023-05-15T01:16:33;25.13;;;18.80;;
13048;SDS011;6591;51.446;5.404;2023-05-15T01:19:02;21.03;;;17.07;;
13048;SDS011;6591;51.446;5.404;2023-05-15T01:27:24;23.17;;;18.70;;
13048;SDS011;6591;51.446;5.404;2023-05-15T01:30:17;21.10;;;17.37;;
13048;SDS011;6591;51.446;5.404;2023-05-15T01:32:53;22.43;;;18.40;;
13048;SDS011;6591;51.446;5.404;2023-05-15T01:35:52;21.40;;;17.70;;
13048;SDS011;6591;51.446;5.404;2023-05-15T01:38:38;22.57;;;17.73;;
13048;SDS011;6591;51.446;5.404;2023-05-15T01:44:21;21.43;;;17.93;;
13048;SDS011;6591;51.446;5.404;2023-05-15T01:46:59;23.40;;;19.40;;
13048;SDS011;6591;51.446;5.404;2023-05-15T01:49:33;23.43;;;18.97;;
13048;SDS011;6591;51.446;5.404;2023-05-15T01:52:09;22.90;;;18.77;;
13048;SDS011;6591;51.446;5.404;2023-05-15T01:54:44;24.00;;;19.50;;
13048;SDS011;6591;51.446;5.404;2023-05-15T01:57:13;22.70;;;18.80;;
13048;SDS011;6591;51.446;5.404;2023-05-15T01:59:43;23.77;;;19.27;;
13048;SDS011;6591;51.446;5.404;2023-05-15T02:02:11;21.90;;;18.73;;
13048;SDS011;6591;51.446;5.404;2023-05-15T02:04:41;22.33;;;18.17;;
13048;SDS011;6591;51.446;5.404;2023-05-15T02:07:11;24.67;;;18.73;;
13048;SDS011;6591;51.446;5.404;2023-05-15T02:09:39;24.47;;;19.30;;
13048;SDS011;6591;51.446;5.404;2023-05-15T02:12:08;24.47;;;19.17;;
13048;SDS011;6591;51.446;5.404;2023-05-15T02:14:37;25.10;;;20.10;;
13048;SDS011;6591;51.446;5.404;2023-05-15T02:17:06;21.80;;;18.30;;
13048;SDS011;6591;51.446;5.404;2023-05-15T02:19:33;25.20;;;19.23;;
13048;SDS011;6591;51.446;5.404;2023-05-15T02:22:01;20.63;;;17.83;;
13048;SDS011;6591;51.446;5.404;2023-05-15T02:24:28;19.60;;;17.10;;
13048;SDS011;6591;51.446;5.404;2023-05-15T02:26:58;20.73;;;18.23;;
13048;SDS011;6591;51.446;5.404;2023-05-15T02:30:02;18.67;;;16.17;;
13048;SDS011;6591;51.446;5.404;2023-05-15T02:35:45;18.70;;;15.83;;
13048;SDS011;6591;51.446;5.404;2023-05-15T02:38:20;20.60;;;16.80;;
13048;SDS011;6591;51.446;5.404;2023-05-15T02:40:54;21.33;;;16.83;;
13048;SDS011;6591;51.446;5.404;2023-05-15T02:43:24;20.70;;;16.83;;
13048;SDS011;6591;51.446;5.404;2023-05-15T02:45:53;21.83;;;18.10;;
13048;SDS011;6591;51.446;5.404;2023-05-15T02:48:22;23.67;;;18.90;;
13048;SDS011;6591;51.446;5.404;2023-05-15T02:50:52;25.47;;;19.17;;
13048;SDS011;6591;51.446;5.404;2023-05-15T02:53:19;28.80;;;20.23;;
13048;SDS011;6591;51.446;5.404;2023-05-15T02:55:46;27.27;;;20.67;;
13048;SDS011;6591;51.446;5.404;2023-05-15T02:58:13;26.80;;;21.40;;
13048;SDS011;6591;51.446;5.404;2023-05-15T03:00:42;27.17;;;19.87;;
13048;SDS011;6591;51.446;5.404;2023-05-15T03:03:09;25.83;;;20.77;;
13048;SDS011;6591;51.446;5.404;2023-05-15T03:05:36;26.30;;;21.13;;
13048;SDS011;6591;51.446;5.404;2023-05-15T03:08:03;25.27;;;20.23;;
13048;SDS011;6591;51.446;5.404;2023-05-15T03:10:30;29.33;;;22.27;;
13048;SDS011;6591;51.446;5.404;2023-05-15T03:12:57;26.60;;;21.30;;
13048;SDS011;6591;51.446;5.404;2023-05-15T03:15:25;26.10;;;21.13;;
13048;SDS011;6591;51.446;5.404;2023-05-15T03:17:52;29.27;;;22.03;;
13048;SDS011;6591;51.446;5.404;2023-05-15T03:20:19;30.43;;;22.90;;
13048;SDS011;6591;51.446;5.404;2023-05-15T03:22:46;30.27;;;23.07;;
13048;SDS011;6591;51.446;5.404;2023-05-15T03:25:13;30.43;;;23.80;;
13048;SDS011;6591;51.446;5.404;2023-05-15T03:27:41;31.73;;;24.43;;
13048;SDS011;6591;51.446;5.404;2023-05-15T03:30:08;34.80;;;23.30;;
13048;SDS011;6591;51.446;5.404;2023-05-15T03:32:35;31.80;;;23.60;;
13048;SDS011;6591;51.446;5.404;2023-05-15T03:35:02;32.93;;;24.50;;
13048;SDS011;6591;51.446;5.404;2023-05-15T03:37:30;32.73;;;25.37;;
13048;SDS011;6591;51.446;5.404;2023-05-15T03:39:57;30.57;;;23.83;;
13048;SDS011;6591;51.446;5.404;2023-05-15T03:42:24;32.60;;;23.63;;
13048;SDS011;6591;51.446;5.404;2023-05-15T03:44:53;32.37;;;24.67;;
13048;SDS011;6591;51.446;5.404;2023-05-15T03:47:21;31.40;;;24.77;;
13048;SDS011;6591;51.446;5.404;2023-05-15T03:49:51;33.83;;;24.93;;
13048;SDS011;6591;51.446;5.404;2023-05-15T03:52:18;31.77;;;23.90;;
13048;SDS011;6591;51.446;5.404;2023-05-15T03:54:45;33.90;;;25.90;;
13048;SDS011;6591;51.446;5.404;2023-05-15T03:57:12;32.43;;;25.37;;
13048;SDS011;6591;51.446;5.404;2023-05-15T03:59:39;33.43;;;25.03;;
13048;SDS011;6591;51.446;5.404;2023-05-15T04:02:06;31.03;;;24.73;;
13048;SDS011;6591;51.446;5.404;2023-05-15T04:04:33;34.90;;;25.37;;
13048;SDS011;6591;51.446;5.404;2023-05-15T04:07:01;30.77;;;24.50;;
13048;SDS011;6591;51.446;5.404;2023-05-15T04:09:28;31.53;;;24.57;;
13048;SDS011;6591;51.446;5.404;2023-05-15T04:11:55;33.10;;;26.10;;
13048;SDS011;6591;51.446;5.404;2023-05-15T04:14:22;34.60;;;25.70;;
13048;SDS011;6591;51.446;5.404;2023-05-15T04:16:49;35.40;;;26.53;;
13048;SDS011;6591;51.446;5.404;2023-05-15T04:19:16;32.63;;;26.07;;
13048;SDS011;6591;51.446;5.404;2023-05-15T04:21:43;31.20;;;24.50;;
13048;SDS011;6591;51.446;5.404;2023-05-15T04:24:11;33.63;;;26.53;;
13048;SDS011;6591;51.446;5.404;2023-05-15T04:26:38;32.37;;;25.33;;
13048;SDS011;6591;51.446;5.404;2023-05-15T04:29:05;34.00;;;24.50;;
13048;SDS011;6591;51.446;5.404;2023-05-15T04:31:32;34.80;;;25.70;;
13048;SDS011;6591;51.446;5.404;2023-05-15T04:34:00;32.17;;;24.97;;
13048;SDS011;6591;51.446;5.404;2023-05-15T04:36:27;35.60;;;24.97;;
13048;SDS011;6591;51.446;5.404;2023-05-15T04:38:54;33.80;;;25.83;;
13048;SDS011;6591;51.446;5.404;2023-05-15T04:41:21;35.20;;;25.97;;
13048;SDS011;6591;51.446;5.404;2023-05-15T04:43:48;34.97;;;28.40;;
13048;SDS011;6591;51.446;5.404;2023-05-15T04:46:16;38.20;;;27.47;;
13048;SDS011;6591;51.446;5.404;2023-05-15T04:48:43;39.17;;;29.13;;
13048;SDS011;6591;51.446;5.404;2023-05-15T04:51:10;38.23;;;28.47;;
13048;SDS011;6591;51.446;5.404;2023-05-15T04:53:37;40.30;;;29.53;;
13048;SDS011;6591;51.446;5.404;2023-05-15T04:56:04;35.40;;;27.53;;
13048;SDS011;6591;51.446;5.404;2023-05-15T04:58:31;40.00;;;30.63;;
13048;SDS011;6591;51.446;5.404;2023-05-15T05:00:58;37.70;;;29.70;;
13048;SDS011;6591;51.446;5.404;2023-05-15T05:03:29;43.33;;;31.53;;
13048;SDS011;6591;51.446;5.404;2023-05-15T05:05:56;41.90;;;31.43;;
13048;SDS011;6591;51.446;5.404;2023-05-15T05:08:23;41.57;;;31.30;;
13048;SDS011;6591;51.446;5.404;2023-05-15T05:10:54;42.63;;;32.30;;
13048;SDS011;6591;51.446;5.404;2023-05-15T05:13:23;41.93;;;29.90;;
13048;SDS011;6591;51.446;5.404;2023-05-15T05:15:50;44.23;;;32.20;;
13048;SDS011;6591;51.446;5.404;2023-05-15T05:18:17;46.57;;;31.67;;
13048;SDS011;6591;51.446;5.404;2023-05-15T05:20:44;49.40;;;31.70;;
13048;SDS011;6591;51.446;5.404;2023-05-15T05:23:11;43.87;;;31.33;;
13048;SDS011;6591;51.446;5.404;2023-05-15T05:25:40;51.10;;;32.97;;
13048;SDS011;6591;51.446;5.404;2023-05-15T05:28:07;54.00;;;33.03;;
13048;SDS011;6591;51.446;5.404;2023-05-15T05:30:34;45.37;;;31.10;;
13048;SDS011;6591;51.446;5.404;2023-05-15T05:33:01;49.57;;;31.90;;
13048;SDS011;6591;51.446;5.404;2023-05-15T05:35:28;51.47;;;33.80;;
13048;SDS011;6591;51.446;5.404;2023-05-15T05:37:55;50.57;;;33.03;;
13048;SDS011;6591;51.446;5.404;2023-05-15T05:40:22;50.50;;;33.43;;
13048;SDS011;6591;51.446;5.404;2023-05-15T05:42:49;55.57;;;35.07;;
13048;SDS011;6591;51.446;5.404;2023-05-15T05:45:16;52.90;;;35.20;;
13048;SDS011;6591;51.446;5.404;2023-05-15T05:47:43;56.20;;;36.50;;
13048;SDS011;6591;51.446;5.404;2023-05-15T05:50:11;53.63;;;34.70;;
13048;SDS011;6591;51.446;5.404;2023-05-15T05:52:38;57.60;;;36.97;;
13048;SDS011;6591;51.446;5.404;2023-05-15T05:55:05;52.67;;;34.03;;
13048;SDS011;6591;51.446;5.404;2023-05-15T05:57:32;49.97;;;33.13;;
13048;SDS011;6591;51.446;5.404;2023-05-15T05:59:59;51.27;;;35.07;;
13048;SDS011;6591;51.446;5.404;2023-05-15T06:02:26;47.57;;;34.10;;
13048;SDS011;6591;51.446;5.404;2023-05-15T06:04:54;52.40;;;35.80;;
13048;SDS011;6591;51.446;5.404;2023-05-15T06:07:21;50.57;;;33.87;;
13048;SDS011;6591;51.446;5.404;2023-05-15T06:09:48;46.53;;;32.90;;
13048;SDS011;6591;51.446;5.404;2023-05-15T06:12:15;49.43;;;32.63;;
13048;SDS011;6591;51.446;5.404;2023-05-15T06:14:42;48.67;;;32.37;;
13048;SDS011;6591;51.446;5.404;2023-05-15T06:17:09;45.23;;;31.73;;
13048;SDS011;6591;51.446;5.404;2023-05-15T06:19:37;43.53;;;31.83;;
13048;SDS011;6591;51.446;5.404;2023-05-15T06:22:04;46.03;;;31.80;;
13048;SDS011;6591;51.446;5.404;2023-05-15T06:24:31;42.37;;;31.87;;
13048;SDS011;6591;51.446;5.404;2023-05-15T06:26:58;40.33;;;28.50;;
13048;SDS011;6591;51.446;5.404;2023-05-15T06:29:28;40.00;;;29.57;;
13048;SDS011;6591;51.446;5.404;2023-05-15T06:31:56;41.57;;;32.30;;
13048;SDS011;6591;51.446;5.404;2023-05-15T06:34:23;42.10;;;30.87;;
13048;SDS011;6591;51.446;5.404;2023-05-15T06:36:50;42.30;;;30.70;;
13048;SDS011;6591;51.446;5.404;2023-05-15T06:39:17;41.73;;;30.73;;
13048;SDS011;6591;51.446;5.404;2023-05-15T06:41:44;39.90;;;29.80;;
13048;SDS011;6591;51.446;5.404;2023-05-15T06:44:11;38.37;;;28.43;;
13048;SDS011;6591;51.446;5.404;2023-05-15T06:46:38;40.43;;;30.80;;
13048;SDS011;6591;51.446;5.404;2023-05-15T06:49:05;39.93;;;30.87;;
13048;SDS011;6591;51.446;5.404;2023-05-15T06:51:32;41.63;;;31.67;;
13048;SDS011;6591;51.446;5.404;2023-05-15T06:54:00;37.33;;;29.33;;
13048;SDS011;6591;51.446;5.404;2023-05-15T06:56:26;36.00;;;28.73;;
13048;SDS011;6591;51.446;5.404;2023-05-15T06:58:53;37.60;;;30.33;;
13048;SDS011;6591;51.446;5.404;2023-05-15T07:01:21;40.05;;;30.20;;
13048;SDS011;6591;51.446;5.404;2023-05-15T07:03:48;42.63;;;32.05;;
13048;SDS011;6591;51.446;5.404;2023-05-15T07:06:15;42.65;;;32.70;;
13048;SDS011;6591;51.446;5.404;2023-05-15T07:08:42;40.92;;;30.33;;
13048;SDS011;6591;51.446;5.404;2023-05-15T07:11:09;34.75;;;29.45;;
13048;SDS011;6591;51.446;5.404;2023-05-15T07:13:37;34.80;;;28.45;;
13048;SDS011;6591;51.446;5.404;2023-05-15T07:16:04;39.75;;;30.80;;
13048;SDS011;6591;51.446;5.404;2023-05-15T07:18:31;35.05;;;29.67;;
13048;SDS011;6591;51.446;5.404;2023-05-15T07:20:58;35.20;;;30.38;;
13048;SDS011;6591;51.446;5.404;2023-05-15T07:23:25;32.83;;;28.25;;
13048;SDS011;6591;51.446;5.404;2023-05-15T07:25:53;35.17;;;28.83;;
13048;SDS011;6591;51.446;5.404;2023-05-15T07:28:21;37.30;;;29.50;;
13048;SDS011;6591;51.446;5.404;2023-05-15T07:30:48;32.63;;;27.08;;
13048;SDS011;6591;51.446;5.404;2023-05-15T07:33:16;36.97;;;29.08;;
13048;SDS011;6591;51.446;5.404;2023-05-15T07:35:42;31.02;;;27.63;;
13048;SDS011;6591;51.446;5.404;2023-05-15T07:38:10;33.17;;;28.90;;
13048;SDS011;6591;51.446;5.404;2023-05-15T07:40:37;33.80;;;28.08;;
13048;SDS011;6591;51.446;5.404;2023-05-15T07:43:04;31.55;;;28.15;;
13048;SDS011;6591;51.446;5.404;2023-05-15T07:45:31;31.20;;;27.73;;
13048;SDS011;6591;51.446;5.404;2023-05-15T07:47:58;29.40;;;26.27;;
13048;SDS011;6591;51.446;5.404;2023-05-15T07:50:39;30.27;;;26.38;;
13048;SDS011;6591;51.446;5.404;2023-05-15T07:53:06;30.88;;;27.55;;
13048;SDS011;6591;51.446;5.404;2023-05-15T07:55:33;31.17;;;26.75;;
13048;SDS011;6591;51.446;5.404;2023-05-15T07:58:00;29.35;;;26.17;;
13048;SDS011;6591;51.446;5.404;2023-05-15T08:00:27;31.58;;;24.70;;
13048;SDS011;6591;51.446;5.404;2023-05-15T08:02:54;26.73;;;23.83;;
13048;SDS011;6591;51.446;5.404;2023-05-15T08:05:21;25.98;;;23.17;;
13048;SDS011;6591;51.446;5.404;2023-05-15T08:07:48;27.75;;;24.45;;
13048;SDS011;6591;51.446;5.404;2023-05-15T08:10:16;25.63;;;22.98;;
13048;SDS011;6591;51.446;5.404;2023-05-15T08:12:43;25.13;;;22.45;;
13048;SDS011;6591;51.446;5.404;2023-05-15T08:15:12;25.85;;;22.45;;
13048;SDS011;6591;51.446;5.404;2023-05-15T08:17:39;24.73;;;22.13;;
13048;SDS011;6591;51.446;5.404;2023-05-15T08:20:07;24.98;;;22.25;;
13048;SDS011;6591;51.446;5.404;2023-05-15T08:22:35;25.08;;;22.48;;
13048;SDS011;6591;51.446;5.404;2023-05-15T08:25:03;25.33;;;22.73;;
13048;SDS011;6591;51.446;5.404;2023-05-15T08:27:31;25.52;;;22.90;;
13048;SDS011;6591;51.446;5.404;2023-05-15T08:29:59;25.08;;;22.35;;
13048;SDS011;6591;51.446;5.404;2023-05-15T08:32:26;25.02;;;20.77;;
13048;SDS011;6591;51.446;5.404;2023-05-15T08:34:53;22.48;;;20.08;;
13048;SDS011;6591;51.446;5.404;2023-05-15T08:37:20;24.67;;;21.42;;
13048;SDS011;6591;51.446;5.404;2023-05-15T08:39:47;24.48;;;21.85;;
13048;SDS011;6591;51.446;5.404;2023-05-15T08:42:20;22.38;;;20.00;;
13048;SDS011;6591;51.446;5.404;2023-05-15T08:44:59;24.08;;;21.48;;
13048;SDS011;6591;51.446;5.404;2023-05-15T08:47:29;22.52;;;20.20;;
13048;SDS011;6591;51.446;5.404;2023-05-15T08:52:45;23.27;;;20.45;;
13048;SDS011;6591;51.446;5.404;2023-05-15T08:55:15;21.88;;;19.58;;
13048;SDS011;6591;51.446;5.404;2023-05-15T08:57:43;21.73;;;19.50;;
13048;SDS011;6591;51.446;5.404;2023-05-15T09:00:11;20.63;;;18.50;;
13048;SDS011;6591;51.446;5.404;2023-05-15T09:02:40;22.20;;;19.83;;
13048;SDS011;6591;51.446;5.404;2023-05-15T09:05:08;21.50;;;19.23;;
13048;SDS011;6591;51.446;5.404;2023-05-15T09:07:37;22.90;;;20.08;;
13048;SDS011;6591;51.446;5.404;2023-05-15T09:10:06;20.33;;;18.23;;
13048;SDS011;6591;51.446;5.404;2023-05-15T09:12:35;21.50;;;19.33;;
13048;SDS011;6591;51.446;5.404;2023-05-15T09:17:43;21.48;;;19.17;;
13048;SDS011;6591;51.446;5.404;2023-05-15T09:20:30;21.92;;;17.80;;
13048;SDS011;6591;51.446;5.404;2023-05-15T09:23:00;20.98;;;18.88;;
13048;SDS011;6591;51.446;5.404;2023-05-15T09:25:37;21.00;;;18.77;;
13048;SDS011;6591;51.446;5.404;2023-05-15T09:28:19;20.48;;;18.10;;
13048;SDS011;6591;51.446;5.404;2023-05-15T09:31:03;19.13;;;17.10;;
13048;SDS011;6591;51.446;5.404;2023-05-15T09:33:31;21.73;;;19.10;;
13048;SDS011;6591;51.446;5.404;2023-05-15T09:36:04;21.77;;;19.52;;
13048;SDS011;6591;51.446;5.404;2023-05-15T09:38:34;20.27;;;18.25;;
13048;SDS011;6591;51.446;5.404;2023-05-15T09:41:13;20.85;;;18.80;;
13048;SDS011;6591;51.446;5.404;2023-05-15T09:43:40;20.10;;;18.17;;
13048;SDS011;6591;51.446;5.404;2023-05-15T09:46:07;19.95;;;17.95;;
13048;SDS011;6591;51.446;5.404;2023-05-15T09:48:37;19.10;;;17.10;;
13048;SDS011;6591;51.446;5.404;2023-05-15T09:51:04;19.33;;;16.67;;
13048;SDS011;6591;51.446;5.404;2023-05-15T09:53:40;20.02;;;17.92;;
13048;SDS011;6591;51.446;5.404;2023-05-15T09:56:08;21.60;;;19.38;;
13048;SDS011;6591;51.446;5.404;2023-05-15T09:58:35;20.77;;;17.48;;
13048;SDS011;6591;51.446;5.404;2023-05-15T10:01:02;19.05;;;17.15;;
13048;SDS011;6591;51.446;5.404;2023-05-15T10:03:37;18.00;;;16.20;;
13048;SDS011;6591;51.446;5.404;2023-05-15T10:06:08;18.30;;;16.40;;
13048;SDS011;6591;51.446;5.404;2023-05-15T10:08:54;19.92;;;17.33;;
13048;SDS011;6591;51.446;5.404;2023-05-15T10:11:21;18.65;;;16.67;;
13048;SDS011;6591;51.446;5.404;2023-05-15T10:13:49;20.35;;;18.23;;
13048;SDS011;6591;51.446;5.404;2023-05-15T10:16:16;21.10;;;18.63;;
13048;SDS011;6591;51.446;5.404;2023-05-15T10:18:47;19.13;;;16.33;;
13048;SDS011;6591;51.446;5.404;2023-05-15T10:21:16;19.30;;;17.30;;
13048;SDS011;6591;51.446;5.404;2023-05-15T10:23:49;19.45;;;16.60;;
13048;SDS011;6591;51.446;5.404;2023-05-15T10:26:22;18.65;;;16.75;;
13048;SDS011;6591;51.446;5.404;2023-05-15T10:29:09;18.00;;;16.10;;
13048;SDS011;6591;51.446;5.404;2023-05-15T10:31:43;19.65;;;17.55;;
13048;SDS011;6591;51.446;5.404;2023-05-15T10:34:14;18.90;;;16.90;;
13048;SDS011;6591;51.446;5.404;2023-05-15T10:36:43;19.05;;;16.67;;
13048;SDS011;6591;51.446;5.404;2023-05-15T10:39:11;18.60;;;16.70;;
13048;SDS011;6591;51.446;5.404;2023-05-15T10:41:39;17.80;;;16.02;;
13048;SDS011;6591;51.446;5.404;2023-05-15T10:44:06;18.00;;;16.23;;
13048;SDS011;6591;51.446;5.404;2023-05-15T10:46:34;19.15;;;17.15;;
13048;SDS011;6591;51.446;5.404;2023-05-15T10:49:03;17.05;;;15.25;;
13048;SDS011;6591;51.446;5.404;2023-05-15T10:51:31;16.73;;;15.10;;
13048;SDS011;6591;51.446;5.404;2023-05-15T10:54:01;17.38;;;15.63;;
13048;SDS011;6591;51.446;5.404;2023-05-15T10:56:32;17.60;;;15.80;;
13048;SDS011;6591;51.446;5.404;2023-05-15T10:59:06;18.65;;;16.63;;
13048;SDS011;6591;51.446;5.404;2023-05-15T11:01:36;21.15;;;18.40;;
13048;SDS011;6591;51.446;5.404;2023-05-15T11:04:07;20.35;;;17.83;;
13048;SDS011;6591;51.446;5.404;2023-05-15T11:06:36;18.88;;;16.88;;
13048;SDS011;6591;51.446;5.404;2023-05-15T11:11:53;20.17;;;18.00;;
13048;SDS011;6591;51.446;5.404;2023-05-15T11:14:23;18.10;;;16.27;;
13048;SDS011;6591;51.446;5.404;2023-05-15T11:19:33;20.30;;;18.10;;
13048;SDS011;6591;51.446;5.404;2023-05-15T11:24:53;19.80;;;16.98;;
13048;SDS011;6591;51.446;5.404;2023-05-15T11:37:53;18.15;;;16.23;;
13048;SDS011;6591;51.446;5.404;2023-05-15T11:40:47;17.88;;;16.02;;
13048;SDS011;6591;51.446;5.404;2023-05-15T11:43:25;18.17;;;16.38;;
13048;SDS011;6591;51.446;5.404;2023-05-15T11:45:55;18.10;;;16.27;;
13048;SDS011;6591;51.446;5.404;2023-05-15T11:48:44;20.13;;;18.15;;
13048;SDS011;6591;51.446;5.404;2023-05-15T11:51:19;21.08;;;18.90;;
13048;SDS011;6591;51.446;5.404;2023-05-15T11:53:53;18.35;;;16.45;;
13048;SDS011;6591;51.446;5.404;2023-05-15T11:56:22;20.55;;;18.50;;
13048;SDS011;6591;51.446;5.404;2023-05-15T11:58:56;20.33;;;18.15;;
13048;SDS011;6591;51.446;5.404;2023-05-15T12:01:25;23.48;;;20.52;;
13048;SDS011;6591;51.446;5.404;2023-05-15T12:03:52;24.15;;;21.55;;
13048;SDS011;6591;51.446;5.404;2023-05-15T12:06:20;26.05;;;23.30;;
13048;SDS011;6591;51.446;5.404;2023-05-15T12:08:51;25.15;;;22.08;;
13048;SDS011;6591;51.446;5.404;2023-05-15T12:11:22;26.42;;;23.63;;
13048;SDS011;6591;51.446;5.404;2023-05-15T12:13:51;30.80;;;26.95;;
13048;SDS011;6591;51.446;5.404;2023-05-15T12:16:26;30.60;;;26.85;;
13048;SDS011;6591;51.446;5.404;2023-05-15T12:18:57;30.55;;;26.40;;
13048;SDS011;6591;51.446;5.404;2023-05-15T12:21:25;33.30;;;26.98;;
13048;SDS011;6591;51.446;5.404;2023-05-15T12:23:53;34.08;;;29.27;;
13048;SDS011;6591;51.446;5.404;2023-05-15T12:26:33;30.50;;;26.17;;
13048;SDS011;6591;51.446;5.404;2023-05-15T12:29:01;30.17;;;25.92;;
13048;SDS011;6591;51.446;5.404;2023-05-15T12:31:30;28.55;;;24.45;;
13048;SDS011;6591;51.446;5.404;2023-05-15T12:34:01;27.42;;;24.13;;
13048;SDS011;6591;51.446;5.404;2023-05-15T12:36:28;32.28;;;26.83;;
13048;SDS011;6591;51.446;5.404;2023-05-15T12:38:56;28.35;;;24.00;;
13048;SDS011;6591;51.446;5.404;2023-05-15T12:41:27;32.65;;;27.35;;
13048;SDS011;6591;51.446;5.404;2023-05-15T12:43:54;30.70;;;26.00;;
13048;SDS011;6591;51.446;5.404;2023-05-15T12:46:22;31.73;;;26.27;;
13048;SDS011;6591;51.446;5.404;2023-05-15T12:48:57;29.42;;;24.40;;
13048;SDS011;6591;51.446;5.404;2023-05-15T12:51:25;30.02;;;25.42;;
13048;SDS011;6591;51.446;5.404;2023-05-15T12:53:55;29.75;;;24.83;;
13048;SDS011;6591;51.446;5.404;2023-05-15T12:56:24;31.48;;;25.63;;
13048;SDS011;6591;51.446;5.404;2023-05-15T12:58:51;29.27;;;25.02;;
13048;SDS011;6591;51.446;5.404;2023-05-15T13:01:20;30.55;;;25.70;;
13048;SDS011;6591;51.446;5.404;2023-05-15T13:03:48;30.02;;;23.95;;
13048;SDS011;6591;51.446;5.404;2023-05-15T13:06:16;29.80;;;24.80;;
13048;SDS011;6591;51.446;5.404;2023-05-15T13:08:43;29.85;;;24.17;;
13048;SDS011;6591;51.446;5.404;2023-05-15T13:11:13;31.48;;;26.00;;
13048;SDS011;6591;51.446;5.404;2023-05-15T13:13:40;27.67;;;23.45;;
13048;SDS011;6591;51.446;5.404;2023-05-15T13:18:46;29.23;;;23.63;;
13048;SDS011;6591;51.446;5.404;2023-05-15T13:21:14;27.13;;;23.45;;
13048;SDS011;6591;51.446;5.404;2023-05-15T13:23:41;27.40;;;23.08;;
13048;SDS011;6591;51.446;5.404;2023-05-15T13:26:08;32.90;;;25.90;;
13048;SDS011;6591;51.446;5.404;2023-05-15T13:28:35;25.67;;;22.33;;
13048;SDS011;6591;51.446;5.404;2023-05-15T13:31:02;28.42;;;23.75;;
13048;SDS011;6591;51.446;5.404;2023-05-15T13:33:30;27.50;;;21.98;;
13048;SDS011;6591;51.446;5.404;2023-05-15T13:35:57;24.58;;;19.30;;
13048;SDS011;6591;51.446;5.404;2023-05-15T13:38:24;23.73;;;20.52;;
13048;SDS011;6591;51.446;5.404;2023-05-15T13:40:51;23.23;;;19.80;;
13048;SDS011;6591;51.446;5.404;2023-05-15T13:43:18;23.50;;;20.27;;
13048;SDS011;6591;51.446;5.404;2023-05-15T13:45:45;22.30;;;18.95;;
13048;SDS011;6591;51.446;5.404;2023-05-15T13:48:12;23.92;;;18.90;;
13048;SDS011;6591;51.446;5.404;2023-05-15T13:50:39;23.63;;;19.40;;
13048;SDS011;6591;51.446;5.404;2023-05-15T13:53:08;28.75;;;23.45;;
13048;SDS011;6591;51.446;5.404;2023-05-15T13:55:35;29.27;;;23.17;;
13048;SDS011;6591;51.446;5.404;2023-05-15T13:58:02;28.55;;;22.52;;
13048;SDS011;6591;51.446;5.404;2023-05-15T14:00:29;30.20;;;22.42;;
13048;SDS011;6591;51.446;5.404;2023-05-15T14:02:56;27.30;;;22.08;;
13048;SDS011;6591;51.446;5.404;2023-05-15T14:05:24;26.90;;;21.15;;
13048;SDS011;6591;51.446;5.404;2023-05-15T14:07:50;29.60;;;22.67;;
13048;SDS011;6591;51.446;5.404;2023-05-15T14:10:17;29.50;;;22.15;;
13048;SDS011;6591;51.446;5.404;2023-05-15T14:12:45;27.50;;;22.08;;
13048;SDS011;6591;51.446;5.404;2023-05-15T14:15:12;25.23;;;20.17;;
13048;SDS011;6591;51.446;5.404;2023-05-15T14:17:39;27.35;;;21.27;;
13048;SDS011;6591;51.446;5.404;2023-05-15T14:20:06;25.98;;;20.80;;
13048;SDS011;6591;51.446;5.404;2023-05-15T14:22:38;23.88;;;18.85;;
13048;SDS011;6591;51.446;5.404;2023-05-15T14:25:06;25.05;;;18.73;;
13048;SDS011;6591;51.446;5.404;2023-05-15T14:27:34;22.63;;;18.15;;
13048;SDS011;6591;51.446;5.404;2023-05-15T14:30:01;18.17;;;15.20;;
13048;SDS011;6591;51.446;5.404;2023-05-15T14:32:28;17.13;;;14.93;;
13048;SDS011;6591;51.446;5.404;2023-05-15T14:34:55;16.02;;;13.52;;
13048;SDS011;6591;51.446;5.404;2023-05-15T14:37:25;16.25;;;12.68;;
13048;SDS011;6591;51.446;5.404;2023-05-15T14:39:53;13.32;;;11.00;;
13048;SDS011;6591;51.446;5.404;2023-05-15T14:42:20;12.20;;;10.55;;
13048;SDS011;6591;51.446;5.404;2023-05-15T14:44:47;10.10;;;8.35;;
13048;SDS011;6591;51.446;5.404;2023-05-15T14:47:14;7.90;;;6.20;;
13048;SDS011;6591;51.446;5.404;2023-05-15T14:49:42;6.95;;;6.20;;
13048;SDS011;6591;51.446;5.404;2023-05-15T14:52:09;6.40;;;5.15;;
13048;SDS011;6591;51.446;5.404;2023-05-15T14:54:37;7.35;;;4.78;;
13048;SDS011;6591;51.446;5.404;2023-05-15T14:57:05;7.05;;;5.20;;
13048;SDS011;6591;51.446;5.404;2023-05-15T14:59:33;7.20;;;4.65;;
13048;SDS011;6591;51.446;5.404;2023-05-15T15:02:00;5.80;;;4.53;;
13048;SDS011;6591;51.446;5.404;2023-05-15T15:04:29;4.55;;;4.05;;
13048;SDS011;6591;51.446;5.404;2023-05-15T15:07:02;7.47;;;4.30;;
13048;SDS011;6591;51.446;5.404;2023-05-15T15:09:30;6.20;;;4.05;;
13048;SDS011;6591;51.446;5.404;2023-05-15T15:11:57;8.05;;;4.20;;
13048;SDS011;6591;51.446;5.404;2023-05-15T15:14:27;7.68;;;3.83;;
13048;SDS011;6591;51.446;5.404;2023-05-15T15:16:54;5.88;;;3.60;;
13048;SDS011;6591;51.446;5.404;2023-05-15T15:19:21;6.57;;;3.85;;
13048;SDS011;6591;51.446;5.404;2023-05-15T15:21:48;5.97;;;3.53;;
13048;SDS011;6591;51.446;5.404;2023-05-15T15:24:16;6.55;;;3.92;;
13048;SDS011;6591;51.446;5.404;2023-05-15T15:26:43;6.50;;;3.90;;